createdAt,value
2024-02-14T00:02:09.106Z,1.70
2024-02-14T00:05:06.668Z,1.80
2024-02-14T00:08:04.511Z,1.80
2024-02-14T00:11:01.688Z,1.90
2024-02-14T00:14:00.011Z,1.90
2024-02-14T00:16:57.922Z,1.90
2024-02-14T00:19:54.813Z,2.00
2024-02-14T00:22:51.753Z,2.10
2024-02-14T00:25:48.620Z,2.00
2024-02-14T00:28:45.482Z,2.00
2024-02-14T00:31:44.180Z,1.90
2024-02-14T00:34:41.188Z,2.00
2024-02-14T00:37:38.735Z,2.10
2024-02-14T00:40:35.626Z,2.00
2024-02-14T00:43:32.509Z,2.00
2024-02-14T00:46:29.458Z,2.10
2024-02-14T00:49:27.409Z,2.20
2024-02-14T00:52:24.366Z,2.20
2024-02-14T00:55:21.352Z,2.20
2024-02-14T00:58:18.577Z,2.30
2024-02-14T01:01:15.457Z,2.40
2024-02-14T01:04:12.628Z,2.30
2024-02-14T01:07:09.596Z,2.40
2024-02-14T01:10:07.049Z,2.40
2024-02-14T01:13:03.945Z,2.50
2024-02-14T01:16:00.843Z,2.50
2024-02-14T01:18:57.968Z,2.60
2024-02-14T01:21:55.045Z,2.60
2024-02-14T01:24:51.913Z,2.60
2024-02-14T01:27:50.158Z,2.50
2024-02-14T01:30:47.054Z,2.60
2024-02-14T01:33:44.854Z,2.60
2024-02-14T01:36:42.232Z,2.60
2024-02-14T01:39:39.205Z,2.60
2024-02-14T01:42:36.072Z,2.60
2024-02-14T01:45:32.935Z,2.60
2024-02-14T01:48:29.964Z,2.60
2024-02-14T01:51:27.130Z,2.60
2024-02-14T01:54:25.872Z,2.50
2024-02-14T01:57:23.682Z,2.50
2024-02-14T02:00:20.854Z,2.50
2024-02-14T02:03:18.195Z,2.40
2024-02-14T02:06:16.112Z,2.40
2024-02-14T02:09:13.048Z,2.50
2024-02-14T02:12:10.064Z,2.50
2024-02-14T02:15:12.153Z,2.40
2024-02-14T02:18:09.148Z,2.50
2024-02-14T02:21:08.216Z,2.50
2024-02-14T02:24:06.229Z,2.50
2024-02-14T02:27:05.801Z,2.50
2024-02-14T02:30:02.906Z,2.60
2024-02-14T02:33:00.005Z,2.60
2024-02-14T02:35:57.019Z,2.50
2024-02-14T02:38:53.928Z,2.60
2024-02-14T02:41:51.407Z,2.60
2024-02-14T02:44:51.454Z,2.60
2024-02-14T02:47:49.436Z,2.60
2024-02-14T02:50:50.559Z,2.60
2024-02-14T02:53:48.216Z,2.60
2024-02-14T02:56:45.764Z,2.70
2024-02-14T02:59:44.146Z,2.70
2024-02-14T03:02:45.396Z,2.70
2024-02-14T03:05:45.532Z,2.60
2024-02-14T03:08:42.512Z,2.70
2024-02-14T03:11:39.462Z,2.70
2024-02-14T03:14:37.364Z,2.80
2024-02-14T03:17:34.339Z,2.80
2024-02-14T03:20:31.384Z,2.80
2024-02-14T03:23:29.233Z,2.80
2024-02-14T03:26:27.929Z,2.90
2024-02-14T03:29:24.817Z,2.90
2024-02-14T03:32:21.724Z,2.90
2024-02-14T03:35:19.021Z,3.00
2024-02-14T03:38:30.500Z,3.00
2024-02-14T03:41:28.640Z,3.00
2024-02-14T03:44:25.676Z,3.10
2024-02-14T03:47:22.569Z,3.00
2024-02-14T03:50:19.425Z,3.00
2024-02-14T03:53:16.438Z,3.00
2024-02-14T03:56:15.685Z,3.10
2024-02-14T03:59:12.551Z,3.00
2024-02-14T04:02:11.128Z,3.00
2024-02-14T04:05:09.857Z,3.10
2024-02-14T04:08:11.052Z,3.10
2024-02-14T04:11:08.043Z,3.20
2024-02-14T04:14:04.902Z,3.20
2024-02-14T04:17:02.114Z,3.20
2024-02-14T04:19:58.975Z,3.20
2024-02-14T04:22:56.703Z,3.20
2024-02-14T04:25:53.577Z,3.20
2024-02-14T04:28:50.400Z,3.20
2024-02-14T04:31:47.243Z,3.30
2024-02-14T04:34:45.297Z,3.30
2024-02-14T04:37:45.506Z,3.30
2024-02-14T04:40:42.385Z,3.40
2024-02-14T04:43:39.920Z,3.50
2024-02-14T04:46:37.148Z,3.50
2024-02-14T04:49:34.276Z,3.50
2024-02-14T04:52:31.465Z,3.50
2024-02-14T04:55:28.883Z,3.50
2024-02-14T04:58:27.505Z,3.50
2024-02-14T05:01:24.473Z,3.50
2024-02-14T05:04:22.011Z,3.60
2024-02-14T05:07:19.025Z,3.70
2024-02-14T05:10:15.999Z,3.80
2024-02-14T05:13:14.216Z,3.80
2024-02-14T05:16:11.816Z,3.80
2024-02-14T05:19:08.983Z,3.80
2024-02-14T05:22:05.951Z,3.90
2024-02-14T05:25:03.158Z,3.90
2024-02-14T05:28:00.894Z,3.90
2024-02-14T05:30:58.757Z,3.90
2024-02-14T05:33:55.725Z,3.90
2024-02-14T05:36:53.549Z,3.80
2024-02-14T05:39:50.676Z,3.80
2024-02-14T05:42:47.941Z,3.90
2024-02-14T05:45:44.867Z,3.80
2024-02-14T05:48:43.070Z,4.00
2024-02-14T05:51:40.195Z,4.20
2024-02-14T05:54:37.063Z,4.20
2024-02-14T05:57:34.048Z,4.20
2024-02-14T06:00:30.967Z,4.20
2024-02-14T06:03:28.660Z,4.10
2024-02-14T06:06:25.754Z,4.10
2024-02-14T06:09:22.751Z,4.10
2024-02-14T06:12:19.611Z,4.10
2024-02-14T06:15:16.536Z,4.10
2024-02-14T06:18:13.709Z,4.10
2024-02-14T06:21:11.072Z,4.20
2024-02-14T06:24:08.586Z,4.20
2024-02-14T06:27:06.144Z,4.30
2024-02-14T06:30:03.213Z,4.30
2024-02-14T06:33:02.402Z,4.30
2024-02-14T06:35:59.882Z,4.40
2024-02-14T06:38:56.858Z,4.40
2024-02-14T06:41:53.752Z,4.40
2024-02-14T06:44:50.870Z,4.30
2024-02-14T06:47:48.026Z,4.30
2024-02-14T06:50:44.979Z,4.40
2024-02-14T06:53:41.875Z,4.40
2024-02-14T06:56:38.870Z,4.40
2024-02-14T06:59:37.979Z,4.40
2024-02-14T07:02:34.908Z,4.40
2024-02-14T07:05:31.994Z,4.40
2024-02-14T07:08:29.701Z,4.40
2024-02-14T07:11:26.636Z,4.40
2024-02-14T07:14:24.403Z,4.40
2024-02-14T07:17:21.376Z,4.40
2024-02-14T07:20:19.185Z,4.40
2024-02-14T07:23:16.050Z,4.40
2024-02-14T07:26:12.920Z,4.40
2024-02-14T07:29:09.922Z,4.30
2024-02-14T07:32:07.567Z,4.40
2024-02-14T07:35:04.920Z,4.30
2024-02-14T07:38:01.797Z,4.30
2024-02-14T07:40:58.689Z,4.30
2024-02-14T07:43:57.756Z,4.30
2024-02-14T07:46:55.308Z,4.30
2024-02-14T07:49:54.347Z,4.30
2024-02-14T07:52:51.343Z,4.30
2024-02-14T07:55:48.318Z,4.30
2024-02-14T07:58:45.386Z,4.30
2024-02-14T08:01:44.106Z,4.30
2024-02-14T08:04:41.070Z,4.30
2024-02-14T08:07:37.954Z,4.30
2024-02-14T08:10:34.820Z,4.30
2024-02-14T08:13:31.793Z,4.20
2024-02-14T08:16:28.819Z,4.20
2024-02-14T08:19:25.898Z,4.20
2024-02-14T08:22:22.963Z,4.30
2024-02-14T08:25:19.831Z,4.30
2024-02-14T08:28:19.301Z,4.30
2024-02-14T08:31:16.471Z,4.40
2024-02-14T08:34:13.451Z,4.30
2024-02-14T08:37:11.558Z,4.30
2024-02-14T08:40:10.833Z,4.40
2024-02-14T08:43:08.159Z,4.30
2024-02-14T08:46:10.046Z,4.30
2024-02-14T08:49:12.202Z,4.40
2024-02-14T08:52:09.821Z,4.40
2024-02-14T08:55:09.937Z,4.40
2024-02-14T08:58:07.127Z,4.40
2024-02-14T09:01:12.978Z,4.40
2024-02-14T09:04:12.047Z,4.50
2024-02-14T09:07:09.153Z,4.50
2024-02-14T09:10:09.357Z,4.50
2024-02-14T09:13:08.625Z,4.50
2024-02-14T09:16:06.834Z,4.60
2024-02-14T09:19:04.531Z,4.50
2024-02-14T09:22:01.478Z,4.50
2024-02-14T09:24:59.420Z,4.50
2024-02-14T09:27:56.395Z,4.50
2024-02-14T09:30:53.317Z,4.50
2024-02-14T09:33:50.658Z,4.50
2024-02-14T09:36:50.888Z,4.60
2024-02-14T09:39:47.862Z,4.60
2024-02-14T09:43:09.811Z,4.60
2024-02-14T09:46:08.606Z,4.70
2024-02-14T09:49:07.467Z,4.70
2024-02-14T09:52:06.090Z,4.70
2024-02-14T09:55:05.097Z,4.70
2024-02-14T09:58:05.190Z,4.70
2024-02-14T10:01:02.246Z,4.60
2024-02-14T10:03:59.143Z,4.70
2024-02-14T10:06:57.048Z,4.60
2024-02-14T10:09:54.840Z,4.60
2024-02-14T10:12:51.696Z,4.60
2024-02-14T10:15:49.094Z,4.60
2024-02-14T10:18:47.862Z,4.70
2024-02-14T10:21:45.776Z,4.70
2024-02-14T10:24:42.725Z,4.70
2024-02-14T10:27:40.927Z,4.80
2024-02-14T10:30:42.193Z,4.80
2024-02-14T10:33:39.532Z,4.80
2024-02-14T10:36:41.441Z,4.80
2024-02-14T10:39:40.432Z,4.80
2024-02-14T10:42:37.381Z,4.90
2024-02-14T10:45:34.338Z,4.90
2024-02-14T10:48:36.094Z,5.10
2024-02-14T10:51:36.286Z,5.00
2024-02-14T10:54:35.759Z,5.00
2024-02-14T10:57:36.213Z,5.00
2024-02-14T11:00:33.498Z,5.10
2024-02-14T11:03:31.695Z,5.20
2024-02-14T11:06:30.828Z,5.20
2024-02-14T11:09:38.739Z,5.20
2024-02-14T11:12:40.293Z,5.20
2024-02-14T11:15:37.787Z,5.20
2024-02-14T11:18:35.753Z,5.10
2024-02-14T11:21:32.890Z,5.20
2024-02-14T11:24:30.323Z,5.20
2024-02-14T11:27:34.425Z,5.30
2024-02-14T11:30:36.468Z,5.30
2024-02-14T11:33:34.315Z,5.40
2024-02-14T11:36:34.640Z,5.50
2024-02-14T11:39:32.053Z,5.60
2024-02-14T11:42:29.319Z,5.60
2024-02-14T11:45:26.268Z,5.70
2024-02-14T11:48:26.583Z,5.70
2024-02-14T11:51:23.654Z,5.70
2024-02-14T11:54:21.570Z,5.70
2024-02-14T11:57:21.453Z,5.80
2024-02-14T12:00:19.191Z,5.80
2024-02-14T12:03:24.383Z,5.80
2024-02-14T12:06:21.546Z,5.90
2024-02-14T12:09:18.603Z,5.80
2024-02-14T12:12:16.956Z,5.80
2024-02-14T12:15:16.353Z,5.80
2024-02-14T12:18:14.789Z,5.90
2024-02-14T12:21:12.104Z,6.00
2024-02-14T12:24:15.372Z,6.10
2024-02-14T12:27:12.681Z,6.10
2024-02-14T12:30:11.281Z,6.10
2024-02-14T12:33:10.777Z,6.20
2024-02-14T12:36:08.220Z,6.20
2024-02-14T12:39:05.524Z,6.20
2024-02-14T12:42:04.403Z,6.30
2024-02-14T12:45:01.455Z,6.30
2024-02-14T12:47:58.552Z,6.30
2024-02-14T12:50:56.201Z,6.30
2024-02-14T12:53:53.219Z,6.30
2024-02-14T12:56:50.204Z,6.40
2024-02-14T12:59:47.137Z,6.40
2024-02-14T13:02:44.250Z,6.50
2024-02-14T13:05:42.000Z,6.50
2024-02-14T13:08:39.944Z,6.50
2024-02-14T13:11:36.934Z,6.50
2024-02-14T13:14:34.221Z,6.60
2024-02-14T13:17:31.693Z,6.50
2024-02-14T13:20:29.255Z,6.60
2024-02-14T13:23:29.320Z,6.60
2024-02-14T13:26:26.930Z,6.60
2024-02-14T13:29:23.909Z,6.70
2024-02-14T13:32:20.893Z,6.70
2024-02-14T13:35:18.161Z,6.80
2024-02-14T13:38:15.174Z,6.80
2024-02-14T13:41:13.695Z,6.90
2024-02-14T13:44:10.863Z,6.90
2024-02-14T13:47:07.727Z,6.90
2024-02-14T13:50:04.926Z,7.00
2024-02-14T13:53:01.867Z,7.00
2024-02-14T13:55:58.784Z,7.00
2024-02-14T13:58:55.666Z,7.00
2024-02-14T14:01:52.605Z,7.00
2024-02-14T14:04:50.352Z,7.00
2024-02-14T14:07:54.715Z,7.10
2024-02-14T14:10:55.583Z,7.10
2024-02-14T14:13:52.594Z,7.10
2024-02-14T14:16:49.638Z,7.20
2024-02-14T14:19:46.571Z,7.20
2024-02-14T14:22:43.432Z,7.20
2024-02-14T14:25:40.350Z,7.20
2024-02-14T14:28:37.408Z,7.20
2024-02-14T14:31:36.906Z,7.20
2024-02-14T14:34:34.378Z,7.30
2024-02-14T14:37:31.339Z,7.30
2024-02-14T14:40:28.210Z,7.30
2024-02-14T14:43:25.121Z,7.30
2024-02-14T14:46:21.977Z,7.30
2024-02-14T14:49:19.445Z,7.20
2024-02-14T14:52:16.406Z,7.20
2024-02-14T14:55:13.379Z,7.20
2024-02-14T14:58:14.785Z,7.20
2024-02-14T15:01:11.714Z,7.10
2024-02-14T15:04:08.672Z,7.00
2024-02-14T15:07:05.813Z,6.90
2024-02-14T15:10:02.772Z,7.00
2024-02-14T15:12:59.624Z,7.00
2024-02-14T15:15:56.515Z,7.00
2024-02-14T15:18:54.069Z,7.10
2024-02-14T15:21:52.308Z,7.10
2024-02-14T15:24:50.170Z,7.10
2024-02-14T15:27:55.582Z,7.10
2024-02-14T15:31:11.214Z,7.10
2024-02-14T15:34:08.576Z,7.10
2024-02-14T15:37:06.691Z,7.00
2024-02-14T15:40:05.524Z,7.00
2024-02-14T15:43:04.697Z,7.10
2024-02-14T15:46:01.944Z,7.20
2024-02-14T15:48:58.844Z,7.20
2024-02-14T15:51:55.856Z,7.10
2024-02-14T15:54:54.181Z,7.10
2024-02-14T15:57:51.064Z,7.20
2024-02-14T16:00:47.957Z,7.20
2024-02-14T16:03:45.570Z,7.30
2024-02-14T16:06:42.532Z,7.30
2024-02-14T16:09:39.875Z,7.30
2024-02-14T16:12:36.747Z,7.40
2024-02-14T16:15:35.068Z,7.40
2024-02-14T16:18:32.084Z,7.30
2024-02-14T16:21:29.096Z,7.40
2024-02-14T16:24:27.460Z,7.40
2024-02-14T16:27:24.435Z,7.50
2024-02-14T16:30:21.426Z,7.50
2024-02-14T16:33:18.446Z,7.50
2024-02-14T16:36:15.462Z,7.50
2024-02-14T16:39:18.091Z,7.50
2024-02-14T16:42:22.672Z,7.50
2024-02-14T16:45:19.851Z,7.50
2024-02-14T16:48:17.746Z,7.50
2024-02-14T16:51:18.804Z,7.50
2024-02-14T16:54:16.009Z,7.40
2024-02-14T16:57:16.748Z,7.40
2024-02-14T17:00:16.115Z,7.40
2024-02-14T17:03:16.912Z,7.40
2024-02-14T17:06:15.956Z,7.40
2024-02-14T17:09:16.581Z,7.40
2024-02-14T17:12:13.571Z,7.40
2024-02-14T17:15:11.065Z,7.40
2024-02-14T17:18:10.547Z,7.30
2024-02-14T17:21:08.390Z,7.30
2024-02-14T17:24:05.809Z,7.30
2024-02-14T17:27:03.239Z,7.20
2024-02-14T17:30:00.310Z,7.20
2024-02-14T17:32:59.546Z,7.20
2024-02-14T17:35:56.707Z,7.20
2024-02-14T17:38:53.837Z,7.30
2024-02-14T17:41:50.791Z,7.20
2024-02-14T17:44:47.777Z,7.20
2024-02-14T17:47:44.758Z,7.10
2024-02-14T17:50:42.295Z,7.30
2024-02-14T17:53:39.294Z,7.40
2024-02-14T17:56:36.161Z,7.50
2024-02-14T17:59:33.061Z,7.50
2024-02-14T18:02:29.992Z,7.50
2024-02-14T18:05:27.042Z,7.50
2024-02-14T18:08:23.954Z,7.50
2024-02-14T18:11:20.867Z,7.40
2024-02-14T18:14:17.712Z,7.40
2024-02-14T18:17:14.585Z,7.40
2024-02-14T18:20:12.723Z,7.50
2024-02-14T18:23:09.632Z,7.50
2024-02-14T18:26:09.393Z,7.60
2024-02-14T18:29:06.391Z,7.50
2024-02-14T18:32:05.563Z,7.50
2024-02-14T18:35:05.224Z,7.50
2024-02-14T18:38:02.840Z,7.50
2024-02-14T18:41:00.864Z,7.50
2024-02-14T18:43:59.967Z,7.50
2024-02-14T18:46:57.146Z,7.50
2024-02-14T18:49:54.105Z,7.50
2024-02-14T18:52:51.541Z,7.50
2024-02-14T18:55:48.747Z,7.40
2024-02-14T18:58:46.512Z,7.40
2024-02-14T19:01:43.372Z,7.40
2024-02-14T19:04:40.269Z,7.40
2024-02-14T19:07:39.357Z,7.50
2024-02-14T19:10:36.292Z,7.50
2024-02-14T19:13:33.161Z,7.50
2024-02-14T19:16:30.327Z,7.50
2024-02-14T19:19:28.798Z,7.40
2024-02-14T19:22:26.946Z,7.40
2024-02-14T19:25:25.210Z,7.50
2024-02-14T19:28:22.352Z,7.50
2024-02-14T19:31:19.198Z,7.40
2024-02-14T19:34:16.211Z,7.40
2024-02-14T19:37:13.304Z,7.50
2024-02-14T19:40:11.919Z,7.50
2024-02-14T19:43:10.680Z,7.40
2024-02-14T19:46:12.152Z,7.50
2024-02-14T19:49:12.593Z,7.50
2024-02-14T19:52:11.108Z,7.50
2024-02-14T19:55:14.561Z,7.50
2024-02-14T19:58:11.478Z,7.50
2024-02-14T20:01:11.259Z,7.40
2024-02-14T20:04:10.507Z,7.40
2024-02-14T20:07:08.681Z,7.40
2024-02-14T20:10:06.974Z,7.30
2024-02-14T20:13:04.636Z,7.30
2024-02-14T20:16:02.084Z,7.30
2024-02-14T20:18:59.330Z,7.50
2024-02-14T20:21:56.387Z,7.50
2024-02-14T20:24:53.289Z,7.50
2024-02-14T20:27:50.860Z,7.50
2024-02-14T20:30:47.693Z,7.60
2024-02-14T20:33:44.575Z,7.60
2024-02-14T20:36:42.700Z,7.50
2024-02-14T20:39:40.078Z,7.50
2024-02-14T20:42:36.961Z,7.50
2024-02-14T20:45:35.446Z,7.50
2024-02-14T20:48:32.864Z,7.50
2024-02-14T20:51:31.423Z,7.50
2024-02-14T20:54:28.299Z,7.50
2024-02-14T20:57:25.260Z,7.50
2024-02-14T21:00:22.292Z,7.60
2024-02-14T21:03:19.213Z,7.60
2024-02-14T21:06:16.178Z,7.70
2024-02-14T21:09:13.942Z,7.70
2024-02-14T21:12:11.440Z,7.70
2024-02-14T21:15:08.847Z,7.60
2024-02-14T21:18:06.863Z,7.60
2024-02-14T21:21:04.214Z,7.60
2024-02-14T21:24:01.190Z,7.60
2024-02-14T21:26:58.881Z,7.50
2024-02-14T21:29:55.866Z,7.50
2024-02-14T21:32:53.462Z,7.50
2024-02-14T21:35:51.022Z,7.50
2024-02-14T21:38:48.004Z,7.40
2024-02-14T21:41:47.758Z,7.40
2024-02-14T21:44:44.705Z,7.30
2024-02-14T21:47:41.710Z,7.30
2024-02-14T21:50:39.016Z,7.30
2024-02-14T21:53:37.100Z,7.40
2024-02-14T21:56:34.280Z,7.40
2024-02-14T21:59:31.290Z,7.40
2024-02-14T22:02:28.478Z,7.40
2024-02-14T22:05:28.904Z,7.40
2024-02-14T22:08:25.881Z,7.50
2024-02-14T22:11:22.747Z,7.50
2024-02-14T22:14:22.952Z,7.50
2024-02-14T22:17:20.070Z,7.60
2024-02-14T22:20:19.182Z,7.60
2024-02-14T22:23:16.044Z,7.60
2024-02-14T22:26:13.009Z,7.60
2024-02-14T22:29:10.691Z,7.50
2024-02-14T22:32:09.656Z,7.50
2024-02-14T22:35:07.720Z,7.60
2024-02-14T22:38:09.478Z,7.60
2024-02-14T22:41:06.549Z,7.70
2024-02-14T22:44:03.817Z,7.70
2024-02-14T22:47:00.696Z,7.70
2024-02-14T22:49:57.570Z,7.60
2024-02-14T22:52:54.402Z,7.60
2024-02-14T22:55:51.294Z,7.70
2024-02-14T22:58:48.839Z,7.70
2024-02-14T23:01:46.537Z,7.70
2024-02-14T23:04:44.669Z,7.60
2024-02-14T23:07:41.764Z,7.60
2024-02-14T23:10:39.429Z,7.60
2024-02-14T23:13:36.876Z,7.60
2024-02-14T23:16:34.576Z,7.60
2024-02-14T23:19:33.222Z,7.50
2024-02-14T23:22:30.122Z,7.60
2024-02-14T23:25:27.008Z,7.60
2024-02-14T23:28:25.298Z,7.70
2024-02-14T23:31:24.409Z,7.70
2024-02-14T23:34:21.480Z,7.70
2024-02-14T23:37:19.086Z,7.60
2024-02-14T23:40:16.124Z,7.60
2024-02-14T23:43:13.313Z,7.60
2024-02-14T23:46:10.616Z,7.60
2024-02-14T23:49:07.614Z,7.60
2024-02-14T23:52:04.988Z,7.50
2024-02-14T23:55:06.813Z,7.60
2024-02-14T23:58:04.883Z,7.60
